Aeroporto :
LOGIN :

Iscrizione | Disclaimer

   EN    FR    IT 

 










Sommario :    VFR   VFR Marginale   IFR   IFR Intensivo   IFR Molto Intensivo
Visibilità : 
Base nubi : 
>= 8 km
>= 3000ft
5 / 8 km
1000 / 3000 ft
1500m / 5 km
500 / 1000 ft
800 / 1500m
200 / 500 ft
< 800m
< 200 ft
Simboli :   Temporali  Nebbia  Neve Forte  Precipitazioni Forti  Vento > 20 kt
SIGMETs :   Varie  Temporali  Ghiacco  Turbolenza  Onda orograficha  Ceneri Vulcaniche






- Altitudine del aeroporto : 870 ft
- Codice IATA : ETZ


LFJL - Metz Nancy Lorraine

ULTIMO METAR :
  • 271930Z AUTO 17007KT CAVOK 06/03 Q1015 NOSIG

METARs OBSOLETI :
  • 271900Z AUTO 16006KT CAVOK 06/03 Q1016 NOSIG
  • 271830Z AUTO 16008KT CAVOK 06/04 Q1016 NOSIG
  • 271800Z AUTO 16008KT CAVOK 07/04 Q1016 NOSIG
  • 271730Z AUTO 17011KT CAVOK 07/04 Q1017 NOSIG
  • 271700Z AUTO 15009KT CAVOK 08/04 Q1017 NOSIG
  • 271630Z AUTO 14007KT CAVOK 08/04 Q1018 NOSIG

TAF TAF LFJL
Valido dal 27 a 18 ore il 28 a 18 ore UTC


271700Z 2718/2818 16008KT CAVOK
TEMPO 2809/2818 RA BKN014
PROB40
TEMPO 2809/2818 BKN005



MetMap, La meteo Aeronautica in un colpo d'occhio ! - Copyright ORBIFLY Dicembre 2007 - Disclaimer

ORBIFLY MET'MAP TEAM :

Programmazione e sviluppo : Alexandra Zaïnal
Concezione : Baudouin d'Aumeries
Supporto tecnico e logistico : Manuel Goepfert
Aiuto : Marc-Olivier Méhu
Aiuto per la traduzione : Arnaldo La Scala




FONTI E CREDITI :

   NOAA